createdAt,value
2018-01-17T00:00:03.510Z,42.1
2018-01-17T00:01:05.127Z,42.1
2018-01-17T00:02:06.167Z,42.5
2018-01-17T00:03:08.062Z,42.3
2018-01-17T00:04:09.679Z,42.1
2018-01-17T00:05:11.299Z,42.3
2018-01-17T00:06:13.222Z,42.3
2018-01-17T00:07:14.563Z,42.1
2018-01-17T00:08:16.178Z,42.1
2018-01-17T00:09:17.798Z,42.1
2018-01-17T00:10:18.988Z,42.2
2018-01-17T00:11:20.885Z,42.3
2018-01-17T00:12:22.780Z,42.2
2018-01-17T00:13:24.675Z,42.3
2018-01-17T00:14:26.272Z,42.4
2018-01-17T00:15:27.890Z,42.1
2018-01-17T00:16:29.507Z,42.2
2018-01-17T00:17:30.886Z,42.2
2018-01-17T00:18:32.482Z,42.1
2018-01-17T00:19:33.810Z,42.1
2018-01-17T00:20:35.126Z,42.2
2018-01-17T00:21:36.723Z,42.2
2018-01-17T00:22:38.041Z,42
2018-01-17T00:23:39.383Z,42
2018-01-17T00:24:41.002Z,42.2
2018-01-17T00:25:42.046Z,42.2
2018-01-17T00:26:43.639Z,42.2
2018-01-17T00:27:45.534Z,42
2018-01-17T00:28:47.150Z,42.1
2018-01-17T00:29:48.494Z,41.9
2018-01-17T00:30:50.093Z,42.2
2018-01-17T00:31:51.413Z,41.9
2018-01-17T00:32:53.031Z,42.1
2018-01-17T00:33:54.925Z,42
2018-01-17T00:34:56.821Z,42.3
2018-01-17T00:35:58.441Z,42.1
2018-01-17T00:37:00.061Z,41.9
2018-01-17T00:38:01.656Z,42.2
2018-01-17T00:39:03.288Z,42.1
2018-01-17T00:40:04.906Z,42.2
2018-01-17T00:41:06.523Z,42
2018-01-17T00:42:08.146Z,42.1
2018-01-17T00:43:10.038Z,42.1
2018-01-17T00:44:11.935Z,42.2
2018-01-17T00:45:13.554Z,42
2018-01-17T00:46:14.598Z,42
2018-01-17T00:47:16.492Z,42.2
2018-01-17T00:48:18.111Z,41.9
2018-01-17T00:49:19.727Z,42.2
2018-01-17T00:50:21.347Z,41.7
2018-01-17T00:51:22.966Z,42
2018-01-17T00:52:24.287Z,42.1
2018-01-17T00:53:26.181Z,42.2
2018-01-17T00:54:27.800Z,42.2
2018-01-17T00:55:29.116Z,41.9
2018-01-17T00:56:30.733Z,41.7
2018-01-17T00:57:32.375Z,42.1
2018-01-17T00:58:34.271Z,42.1
2018-01-17T00:59:35.889Z,42.1
2018-01-17T01:00:37.783Z,41.7
2018-01-17T01:03:10.374Z,42.1
2018-01-17T01:04:12.259Z,41.7
2018-01-17T01:05:14.154Z,42.2
2018-01-17T01:06:15.214Z,42.1
2018-01-17T01:07:16.809Z,42
2018-01-17T01:08:17.871Z,41.8
2018-01-17T01:09:19.766Z,41.8
2018-01-17T01:10:21.371Z,42.1
2018-01-17T01:11:22.996Z,42.1
2018-01-17T01:12:24.354Z,42
2018-01-17T01:13:26.255Z,41.6
2018-01-17T01:14:27.594Z,41.6
2018-01-17T01:15:29.212Z,41.6
2018-01-17T01:16:30.254Z,42.1
2018-01-17T01:17:31.882Z,42.1
2018-01-17T01:18:33.525Z,41.9
2018-01-17T01:19:34.865Z,42
2018-01-17T01:20:36.761Z,42
2018-01-17T01:21:38.378Z,42.2
2018-01-17T01:22:40.003Z,42
2018-01-17T01:23:41.653Z,41.7
2018-01-17T01:24:42.975Z,42.1
2018-01-17T01:25:44.571Z,42
2018-01-17T01:26:45.889Z,42.1
2018-01-17T01:27:47.233Z,41.5
2018-01-17T01:28:48.578Z,41.5
2018-01-17T01:29:50.472Z,42.2
2018-01-17T01:30:51.513Z,42.1
2018-01-17T01:31:53.151Z,42
2018-01-17T01:32:55.045Z,41.9
2018-01-17T01:33:56.939Z,42.2
2018-01-17T01:34:58.576Z,41.9
2018-01-17T01:36:00.192Z,41.6
2018-01-17T01:37:01.813Z,41.9
2018-01-17T01:38:03.613Z,41.7
2018-01-17T01:39:05.249Z,42
2018-01-17T01:40:06.309Z,42.1
2018-01-17T01:41:07.627Z,41.8
2018-01-17T01:42:09.229Z,42.1
2018-01-17T01:43:10.571Z,41.8
2018-01-17T01:44:12.187Z,41.9
2018-01-17T01:45:13.784Z,41.7
2018-01-17T01:46:15.681Z,41.8
2018-01-17T01:47:17.298Z,41.7
2018-01-17T01:48:18.917Z,41.7
2018-01-17T01:49:20.534Z,41.8
2018-01-17T01:50:22.429Z,41.8
2018-01-17T01:51:24.049Z,41.7
2018-01-17T01:52:25.366Z,41.6
2018-01-17T01:53:27.262Z,41.9
2018-01-17T01:54:29.165Z,41.9
2018-01-17T01:55:31.059Z,41.9
2018-01-17T01:56:32.677Z,41.7
2018-01-17T01:57:34.334Z,41.9
2018-01-17T01:58:35.954Z,42
2018-01-17T01:59:37.315Z,41.9
2018-01-17T02:00:38.937Z,41.9
2018-01-17T02:01:40.531Z,41.9
2018-01-17T02:02:41.848Z,42.1
2018-01-17T02:03:42.914Z,42.2
2018-01-17T02:04:44.812Z,41.9
2018-01-17T02:05:46.130Z,41.8
2018-01-17T02:06:47.170Z,42.2
2018-01-17T02:07:48.492Z,41.9
2018-01-17T02:08:50.107Z,41.8
2018-01-17T02:09:51.450Z,41.9
2018-01-17T02:10:52.803Z,41.8
2018-01-17T02:11:54.430Z,41.9
2018-01-17T02:12:56.034Z,41.9
2018-01-17T02:13:57.356Z,41.9
2018-01-17T02:14:58.973Z,42.2
2018-01-17T02:16:00.295Z,42.1
2018-01-17T02:17:01.890Z,41.9
2018-01-17T02:18:03.486Z,42.2
2018-01-17T02:19:05.382Z,42.2
2018-01-17T02:20:07.000Z,42.2
2018-01-17T02:21:08.896Z,41.9
2018-01-17T02:22:10.242Z,41.8
2018-01-17T02:23:11.584Z,42.2
2018-01-17T02:24:12.899Z,41.9
2018-01-17T02:25:14.518Z,41.9
2018-01-17T02:26:15.862Z,42.1
2018-01-17T02:27:17.482Z,41.8
2018-01-17T02:28:19.098Z,41.9
2018-01-17T02:29:20.993Z,41.9
2018-01-17T02:30:22.889Z,42.2
2018-01-17T02:31:24.234Z,41.8
2018-01-17T02:32:25.552Z,41.8
2018-01-17T02:33:26.873Z,42
2018-01-17T02:34:28.492Z,42.2
2018-01-17T02:35:30.110Z,41.9
2018-01-17T02:36:31.708Z,41.9
2018-01-17T02:37:33.025Z,42
2018-01-17T02:38:34.347Z,41.8
2018-01-17T02:39:35.942Z,41.9
2018-01-17T02:40:37.290Z,42
2018-01-17T02:41:39.187Z,41.9
2018-01-17T02:42:41.079Z,41.8
2018-01-17T02:43:42.409Z,42.1
2018-01-17T02:44:43.726Z,41.9
2018-01-17T02:45:45.347Z,42.2
2018-01-17T02:46:46.389Z,41.8
2018-01-17T02:47:48.008Z,41.8
2018-01-17T02:48:49.386Z,41.8
2018-01-17T02:49:50.728Z,41.8
2018-01-17T02:50:52.329Z,41.9
2018-01-17T02:51:54.262Z,42
2018-01-17T02:52:55.604Z,41.9
2018-01-17T02:53:56.639Z,41.9
2018-01-17T02:54:58.266Z,42
2018-01-17T02:55:59.601Z,41.9
2018-01-17T02:57:00.922Z,41.9
2018-01-17T02:58:02.542Z,42.2
2018-01-17T02:59:04.158Z,41.9
2018-01-17T03:00:05.478Z,41.9
2018-01-17T03:01:06.799Z,42.2
2018-01-17T03:02:08.138Z,41.8
2018-01-17T03:03:09.738Z,42.1
2018-01-17T03:04:11.631Z,42.1
2018-01-17T03:05:13.382Z,42
2018-01-17T03:06:14.976Z,41.9
2018-01-17T03:07:16.314Z,41.8
2018-01-17T03:08:17.932Z,42.2
2018-01-17T03:09:19.830Z,42.2
2018-01-17T03:10:21.453Z,42.2
2018-01-17T03:11:23.346Z,41.8
2018-01-17T03:12:24.693Z,41.8
2018-01-17T03:13:26.329Z,41.8
2018-01-17T03:14:27.654Z,41.7
2018-01-17T03:15:28.719Z,41.8
2018-01-17T03:16:30.649Z,42.1
2018-01-17T03:17:31.989Z,42.1
2018-01-17T03:18:33.605Z,41.9
2018-01-17T03:19:34.925Z,42
2018-01-17T03:20:36.545Z,41.9
2018-01-17T03:21:38.444Z,41.9
2018-01-17T03:22:39.767Z,41.7
2018-01-17T03:23:41.658Z,42
2018-01-17T03:24:42.698Z,42
2018-01-17T03:25:44.299Z,42.2
2018-01-17T03:26:46.194Z,42
2018-01-17T03:27:47.523Z,41.9
2018-01-17T03:28:48.857Z,41.9
2018-01-17T03:29:49.901Z,42.3
2018-01-17T03:30:51.521Z,42
2018-01-17T03:31:53.138Z,41.8
2018-01-17T03:32:54.479Z,41.9
2018-01-17T03:33:56.096Z,42.1
2018-01-17T03:34:57.412Z,41.8
2018-01-17T03:35:59.029Z,41.9
2018-01-17T03:37:00.924Z,41.9
2018-01-17T03:38:02.522Z,41.8
2018-01-17T03:39:03.839Z,41.9
2018-01-17T03:40:04.901Z,41.9
2018-01-17T03:41:06.535Z,41.9
2018-01-17T03:42:08.431Z,42.2
2018-01-17T03:43:09.749Z,42.1
2018-01-17T03:44:11.366Z,41.9
2018-01-17T03:45:12.965Z,41.9
2018-01-17T03:46:14.861Z,42.1
2018-01-17T03:47:16.755Z,42.1
2018-01-17T03:48:18.093Z,42.2
2018-01-17T03:49:19.691Z,42.2
2018-01-17T03:50:21.011Z,41.7
2018-01-17T03:51:22.908Z,41.8
2018-01-17T03:52:24.802Z,41.9
2018-01-17T03:53:26.697Z,42
2018-01-17T03:54:28.021Z,41.8
2018-01-17T03:55:29.642Z,41.9
2018-01-17T03:56:31.257Z,42.1
2018-01-17T03:57:32.616Z,41.9
2018-01-17T03:58:34.512Z,42.2
2018-01-17T03:59:36.155Z,42.1
2018-01-17T04:00:37.477Z,41.8
2018-01-17T04:01:39.372Z,41.8
2018-01-17T04:02:41.000Z,42.1
2018-01-17T04:03:42.335Z,41.8
2018-01-17T04:04:44.232Z,41.9
2018-01-17T04:05:45.828Z,41.9
2018-01-17T04:06:47.428Z,41.8
2018-01-17T04:07:49.043Z,41.9
2018-01-17T04:08:50.365Z,41.9
2018-01-17T04:09:51.982Z,41.9
2018-01-17T04:10:53.324Z,41.9
2018-01-17T04:11:54.943Z,41.7
2018-01-17T04:12:56.266Z,41.8
2018-01-17T04:13:58.164Z,41.9
2018-01-17T04:14:59.504Z,41.9
2018-01-17T04:16:00.850Z,41.8
2018-01-17T04:17:02.340Z,41.7
2018-01-17T04:18:03.939Z,41.8
2018-01-17T04:19:04.978Z,41.9
2018-01-17T04:20:06.296Z,41.8
2018-01-17T04:21:07.915Z,41.7
2018-01-17T04:22:09.530Z,41.7
2018-01-17T04:23:11.154Z,41.8
2018-01-17T04:24:12.772Z,41.8
2018-01-17T04:25:14.108Z,41.7
2018-01-17T04:26:16.006Z,41.7
2018-01-17T04:27:17.668Z,42.1
2018-01-17T04:28:18.411Z,41.9
2018-01-17T04:29:20.313Z,41.8
2018-01-17T04:30:21.935Z,42
2018-01-17T04:31:23.830Z,41.6
2018-01-17T04:32:24.898Z,41.7
2018-01-17T04:33:26.518Z,41.7
2018-01-17T04:34:27.580Z,42
2018-01-17T04:35:28.619Z,41.8
2018-01-17T04:36:30.237Z,41.6
2018-01-17T04:37:31.856Z,41.6
2018-01-17T04:38:33.474Z,41.6
2018-01-17T04:39:35.089Z,41.8
2018-01-17T04:40:36.711Z,41.7
2018-01-17T04:41:38.605Z,41.6
2018-01-17T04:42:40.501Z,41.8
2018-01-17T04:43:42.398Z,41.6
2018-01-17T04:44:44.016Z,41.8
2018-01-17T04:45:45.916Z,41.9
2018-01-17T04:46:47.539Z,41.9
2018-01-17T04:47:49.153Z,41.7
2018-01-17T04:48:50.472Z,41.9
2018-01-17T04:49:52.087Z,41.4
2018-01-17T04:50:53.984Z,41.9
2018-01-17T04:51:55.601Z,41.8
2018-01-17T04:52:57.269Z,41.9
2018-01-17T04:53:58.594Z,41.9
2018-01-17T04:54:59.913Z,41.6
2018-01-17T04:56:01.532Z,41.8
2018-01-17T04:57:02.577Z,41.5
2018-01-17T04:58:03.620Z,41.8
2018-01-17T04:59:05.516Z,41.9
2018-01-17T05:00:07.136Z,41.7
2018-01-17T05:01:09.033Z,41.7
2018-01-17T05:02:10.412Z,41.9
2018-01-17T05:03:11.731Z,41.7
2018-01-17T05:04:13.628Z,41.8
2018-01-17T05:05:15.523Z,41.9
2018-01-17T05:06:16.840Z,41.9
2018-01-17T05:07:18.181Z,41.9
2018-01-17T05:08:19.519Z,41.9
2018-01-17T05:09:21.137Z,41.8
2018-01-17T05:10:22.482Z,41.8
2018-01-17T05:11:24.100Z,41.7
2018-01-17T05:12:25.717Z,41.8
2018-01-17T05:13:27.332Z,41.6
2018-01-17T05:14:29.228Z,41.7
2018-01-17T05:15:30.824Z,41.8
2018-01-17T05:16:32.720Z,41.6
2018-01-17T05:17:33.785Z,41.6
2018-01-17T05:18:35.405Z,42
2018-01-17T05:19:36.776Z,41.9
2018-01-17T05:20:38.395Z,41.8
2018-01-17T05:21:40.013Z,41.7
2018-01-17T05:22:41.907Z,41.4
2018-01-17T05:23:43.951Z,41.8
2018-01-17T05:24:45.294Z,41.7
2018-01-17T05:25:46.613Z,41.7
2018-01-17T05:26:48.232Z,41.7
2018-01-17T05:27:50.126Z,41.6
2018-01-17T05:28:51.445Z,41.3
2018-01-17T05:29:52.764Z,41.4
2018-01-17T05:30:54.355Z,41.3
2018-01-17T05:31:56.254Z,41.7
2018-01-17T05:32:57.866Z,41.3
2018-01-17T05:33:59.462Z,41.3
2018-01-17T05:35:01.364Z,41.7
2018-01-17T05:36:02.960Z,41.2
2018-01-17T05:37:04.312Z,41.5
2018-01-17T05:38:05.932Z,41.5
2018-01-17T05:39:06.975Z,41.4
2018-01-17T05:40:08.294Z,41.6
2018-01-17T05:41:09.915Z,41.4
2018-01-17T05:42:11.811Z,41.6
2018-01-17T05:43:13.151Z,41.2
2018-01-17T05:44:14.778Z,41.2
2018-01-17T05:45:16.676Z,41.3
2018-01-17T05:46:18.295Z,41.4
2018-01-17T05:47:20.199Z,41.1
2018-01-17T05:48:21.814Z,41.3
2018-01-17T05:49:23.412Z,41.3
2018-01-17T05:50:24.478Z,41.3
2018-01-17T05:51:26.374Z,41.4
2018-01-17T05:52:27.993Z,41.4
2018-01-17T05:53:29.314Z,41.3
2018-01-17T05:54:30.931Z,41
2018-01-17T05:55:32.824Z,41.5
2018-01-17T05:56:34.441Z,41.5
2018-01-17T05:57:36.043Z,41.5
2018-01-17T05:58:37.658Z,41.1
2018-01-17T05:59:39.552Z,41.3
2018-01-17T06:00:41.449Z,41.1
2018-01-17T06:01:43.344Z,41.4
2018-01-17T06:02:45.239Z,41.3
2018-01-17T06:03:46.560Z,41.4
2018-01-17T06:04:47.901Z,41.2
2018-01-17T06:05:49.222Z,41.2
2018-01-17T06:06:50.815Z,41.2
2018-01-17T06:07:51.579Z,41
2018-01-17T06:08:53.197Z,41.1
2018-01-17T06:09:54.516Z,41
2018-01-17T06:10:56.412Z,41
2018-01-17T06:11:57.734Z,41.3
2018-01-17T06:12:59.627Z,41
2018-01-17T06:14:01.522Z,41.4
2018-01-17T06:15:03.415Z,41.4
2018-01-17T06:16:05.060Z,41.1
2018-01-17T06:17:05.824Z,41.1
2018-01-17T06:18:06.588Z,41.1
2018-01-17T06:19:08.485Z,41.1
2018-01-17T06:20:10.407Z,41.1
2018-01-17T06:21:12.025Z,40.9
2018-01-17T06:22:13.919Z,41.1
2018-01-17T06:23:14.682Z,41.1
2018-01-17T06:24:16.575Z,41.1
2018-01-17T06:25:18.171Z,41.1
2018-01-17T06:26:19.767Z,41
2018-01-17T06:27:21.371Z,41
2018-01-17T06:28:23.268Z,41
2018-01-17T06:29:24.305Z,41
2018-01-17T06:30:25.357Z,40.9
2018-01-17T06:31:26.676Z,40.9
2018-01-17T06:32:27.994Z,41.1
2018-01-17T06:33:29.591Z,40.7
2018-01-17T06:34:31.489Z,40.7
2018-01-17T06:35:33.105Z,40.8
2018-01-17T06:36:35.000Z,40.9
2018-01-17T06:37:36.619Z,40.8
2018-01-17T06:38:38.238Z,40.9
2018-01-17T06:39:39.553Z,40.6
2018-01-17T06:40:41.480Z,41.1
2018-01-17T06:41:43.096Z,41.1
2018-01-17T06:42:44.416Z,41
2018-01-17T06:43:46.316Z,41
2018-01-17T06:44:48.226Z,40.8
2018-01-17T06:45:50.120Z,40.7
2018-01-17T06:46:51.439Z,40.7
2018-01-17T06:47:53.056Z,41.1
2018-01-17T06:48:54.651Z,41.3
2018-01-17T06:49:56.548Z,41.3
2018-01-17T06:50:57.878Z,40.7
2018-01-17T06:51:58.949Z,40.8
2018-01-17T06:53:00.289Z,40.9
2018-01-17T06:54:01.331Z,40.9
2018-01-17T06:55:03.272Z,40.9
2018-01-17T06:56:04.311Z,42.6
2018-01-17T06:57:05.961Z,42.3
2018-01-17T06:58:07.304Z,42.8
2018-01-17T06:59:08.347Z,42.3
2018-01-17T07:00:10.246Z,42.2
2018-01-17T07:01:11.881Z,42.2
2018-01-17T07:02:13.779Z,42.3
2018-01-17T07:03:15.121Z,42.3
2018-01-17T07:04:17.089Z,42.1
2018-01-17T07:05:18.710Z,42.2
2018-01-17T07:06:20.341Z,42
2018-01-17T07:07:21.665Z,42.1
2018-01-17T07:08:23.007Z,41.9
2018-01-17T07:09:24.628Z,42.2
2018-01-17T07:10:26.236Z,41.7
2018-01-17T07:11:27.863Z,42.1
2018-01-17T07:12:28.930Z,42
2018-01-17T07:13:30.538Z,41.8
2018-01-17T07:14:32.167Z,41.8
2018-01-17T07:15:33.789Z,41.8
2018-01-17T07:16:35.388Z,41.8
2018-01-17T07:17:37.291Z,41.5
2018-01-17T07:18:39.263Z,41.9
2018-01-17T07:19:40.942Z,41.6
2018-01-17T07:20:41.984Z,41.4
2018-01-17T07:21:43.611Z,41.5
2018-01-17T07:22:45.232Z,41.3
2018-01-17T07:23:47.134Z,41.5
2018-01-17T07:24:48.756Z,41.4
2018-01-17T07:25:50.377Z,41.9
2018-01-17T07:26:51.723Z,41.8
2018-01-17T07:27:53.618Z,41.6
2018-01-17T07:28:55.239Z,41.6
2018-01-17T07:29:56.561Z,41.5
2018-01-17T07:30:57.910Z,41.8
2018-01-17T07:31:59.530Z,41.9
2018-01-17T07:33:01.150Z,41.7
2018-01-17T07:34:02.595Z,41.8
2018-01-17T07:35:04.396Z,41.8
2018-01-17T07:36:05.825Z,41.9
2018-01-17T07:37:07.147Z,41.8
2018-01-17T07:38:08.489Z,41.5
2018-01-17T07:39:09.885Z,41.9
2018-01-17T07:40:11.208Z,41.8
2018-01-17T07:41:13.113Z,41.9
2018-01-17T07:42:14.435Z,41.6
2018-01-17T07:43:16.057Z,41.6
2018-01-17T07:44:17.113Z,42
2018-01-17T07:45:18.739Z,41.7
2018-01-17T07:46:20.354Z,41.9
2018-01-17T07:47:21.974Z,41.8
2018-01-17T07:48:23.294Z,41.9
2018-01-17T07:49:24.614Z,42.1
2018-01-17T07:50:26.509Z,41.9
2018-01-17T07:51:27.557Z,41.8
2018-01-17T07:52:28.766Z,42.2
2018-01-17T07:53:30.364Z,41.7
2018-01-17T07:54:31.707Z,41.7
2018-01-17T07:55:33.327Z,41.8
2018-01-17T07:56:34.648Z,42
2018-01-17T07:57:36.281Z,41.7
2018-01-17T07:58:37.888Z,42
2018-01-17T07:59:39.506Z,41.5
2018-01-17T08:00:40.549Z,42.1
2018-01-17T08:01:42.470Z,42.1
2018-01-17T08:02:43.817Z,42
2018-01-17T08:03:45.823Z,42.2
2018-01-17T08:04:47.225Z,42.1
2018-01-17T08:05:49.127Z,42.2
2018-01-17T08:06:50.758Z,42
2018-01-17T08:07:52.809Z,42.1
2018-01-17T08:08:54.714Z,41.5
2018-01-17T08:09:56.037Z,41.9
2018-01-17T08:10:57.956Z,42
2018-01-17T08:11:59.853Z,41.6
2018-01-17T08:13:01.855Z,42
2018-01-17T08:14:03.496Z,42
2018-01-17T08:15:05.396Z,42.1
2018-01-17T08:16:06.723Z,42.1
2018-01-17T08:17:08.346Z,42.1
2018-01-17T08:18:10.246Z,42.2
2018-01-17T08:19:12.142Z,41.8
2018-01-17T08:20:13.468Z,42.1
2018-01-17T08:21:14.812Z,41.7
2018-01-17T08:22:16.713Z,42.1
2018-01-17T08:23:18.333Z,42.1
2018-01-17T08:24:19.954Z,42.1
2018-01-17T08:25:21.312Z,42.1
2018-01-17T08:26:22.637Z,42.1
2018-01-17T08:27:24.255Z,42
2018-01-17T08:28:25.580Z,42
2018-01-17T08:29:26.922Z,42.2
2018-01-17T08:30:28.267Z,42.2
2018-01-17T08:31:29.317Z,42
2018-01-17T08:32:30.943Z,42.2
2018-01-17T08:33:32.834Z,41.7
2018-01-17T08:34:34.459Z,42.1
2018-01-17T08:35:36.356Z,42.1
2018-01-17T08:36:37.128Z,42.2
2018-01-17T08:37:39.028Z,42.1
2018-01-17T08:38:40.505Z,42
2018-01-17T08:39:42.107Z,42.2
2018-01-17T08:40:44.007Z,42
2018-01-17T08:41:45.419Z,42
2018-01-17T08:42:46.770Z,41.8
2018-01-17T08:43:48.114Z,42.2
2018-01-17T08:44:49.470Z,42
2018-01-17T08:45:51.082Z,42.1
2018-01-17T08:46:52.470Z,42.1
2018-01-17T08:47:53.798Z,42.2
2018-01-17T08:48:55.417Z,42.2
2018-01-17T08:49:57.040Z,42.6
2018-01-17T08:50:58.937Z,42.5
2018-01-17T08:52:00.560Z,42.4
2018-01-17T08:53:02.195Z,42.4
2018-01-17T08:54:03.648Z,42.3
2018-01-17T08:55:04.975Z,42.3
2018-01-17T08:56:06.595Z,42.3
2018-01-17T08:57:07.937Z,42.3
2018-01-17T08:58:09.839Z,42.5
2018-01-17T08:59:11.461Z,42.1
2018-01-17T09:00:13.371Z,42.4
2018-01-17T09:01:14.990Z,42.2
2018-01-17T09:02:16.312Z,42.4
2018-01-17T09:03:17.928Z,42.5
2018-01-17T09:04:19.250Z,42.1
2018-01-17T09:05:20.846Z,42.2
2018-01-17T09:06:22.812Z,42.3
2018-01-17T09:07:24.708Z,42.5
2018-01-17T09:08:26.604Z,42.3
2018-01-17T09:09:28.125Z,42.2
2018-01-17T09:10:30.025Z,42.1
2018-01-17T09:11:31.069Z,42.1
2018-01-17T09:12:32.963Z,42.4
2018-01-17T09:13:34.306Z,42.2
2018-01-17T09:14:35.684Z,42.1
2018-01-17T09:15:37.340Z,42.6
2018-01-17T09:16:38.683Z,42.2
2018-01-17T09:17:40.302Z,42.4
2018-01-17T09:18:41.925Z,42.7
2018-01-17T09:19:43.544Z,42.2
2018-01-17T09:20:45.443Z,42.3
2018-01-17T09:21:46.763Z,42.3
2018-01-17T09:22:48.105Z,42.3
2018-01-17T09:23:49.755Z,42.3
2018-01-17T09:24:51.692Z,42.3
2018-01-17T09:25:53.308Z,42.4
2018-01-17T09:26:54.929Z,42.2
2018-01-17T09:27:56.249Z,42.6
2018-01-17T09:28:57.574Z,42.4
2018-01-17T09:29:58.646Z,42.3
2018-01-17T09:31:00.268Z,42.2
2018-01-17T09:32:01.889Z,42.4
2018-01-17T09:33:03.507Z,42.4
2018-01-17T09:34:05.152Z,42.2
2018-01-17T09:35:06.777Z,42.2
2018-01-17T09:36:08.668Z,42.3
2018-01-17T09:37:10.270Z,42.3
2018-01-17T09:38:11.864Z,42.5
2018-01-17T09:39:12.904Z,42.6
2018-01-17T09:40:14.832Z,42.9
2018-01-17T09:41:16.451Z,42.9
2018-01-17T09:42:18.047Z,42.7
2018-01-17T09:43:19.664Z,42.7
2018-01-17T09:44:20.988Z,42.7
2018-01-17T09:45:22.603Z,42.7
2018-01-17T09:46:23.924Z,42.6
2018-01-17T09:47:25.821Z,42.8
2018-01-17T09:48:27.719Z,42.7
2018-01-17T09:49:29.041Z,42.6
2018-01-17T09:50:30.938Z,42.8
2018-01-17T09:51:32.556Z,42.9
2018-01-17T09:52:34.457Z,42.9
2018-01-17T09:53:36.359Z,43.7
2018-01-17T09:54:37.428Z,44.2
2018-01-17T09:55:39.341Z,42.8
2018-01-17T09:56:40.684Z,43.1
2018-01-17T09:57:42.593Z,42.7
2018-01-17T09:58:44.213Z,43
2018-01-17T09:59:45.571Z,42.9
2018-01-17T10:00:47.189Z,43.3
2018-01-17T10:01:48.534Z,43.4
2018-01-17T10:02:50.433Z,43.4
2018-01-17T10:03:51.289Z,43.4
2018-01-17T10:04:52.909Z,43.1
2018-01-17T10:05:54.813Z,42.9
2018-01-17T10:06:56.413Z,42.7
2018-01-17T10:07:58.018Z,42.2
2018-01-17T10:08:59.365Z,42.6
2018-01-17T10:10:00.992Z,42.9
2018-01-17T10:11:02.931Z,43.8
2018-01-17T10:12:04.553Z,41.9
2018-01-17T10:13:05.903Z,42.8
2018-01-17T10:14:07.802Z,42.4
2018-01-17T10:15:09.426Z,42.3
2018-01-17T10:16:11.324Z,42.9
2018-01-17T10:17:12.640Z,43
2018-01-17T10:18:14.539Z,43
2018-01-17T10:19:15.879Z,42.8
2018-01-17T10:20:17.498Z,43.3
2018-01-17T10:21:19.121Z,43.2
2018-01-17T10:22:20.739Z,43.3
2018-01-17T10:23:22.081Z,43.5
2018-01-17T10:24:23.702Z,43.6
2018-01-17T10:25:25.066Z,43.3
2018-01-17T10:26:26.386Z,43.3
2018-01-17T10:27:27.711Z,43.4
2018-01-17T10:28:29.313Z,43.5
2018-01-17T10:29:30.932Z,43.3
2018-01-17T10:30:32.532Z,43.3
2018-01-17T10:31:34.434Z,43.4
2018-01-17T10:32:36.052Z,43.8
2018-01-17T10:33:37.383Z,43.3
2018-01-17T10:34:38.980Z,43.5
2018-01-17T10:35:40.878Z,43.4
2018-01-17T10:36:42.497Z,43.3
2018-01-17T10:37:43.821Z,43.4
2018-01-17T10:38:45.144Z,43.3
2018-01-17T10:39:46.771Z,43.5
2018-01-17T10:40:48.434Z,43.6
2018-01-17T10:41:49.596Z,43.8
2018-01-17T10:42:51.066Z,43.6
2018-01-17T10:43:52.947Z,43.5
2018-01-17T10:44:54.577Z,43.4
2018-01-17T10:45:56.269Z,43.6
2018-01-17T10:46:58.065Z,43.4
2018-01-17T10:47:58.832Z,43.3
2018-01-17T10:49:00.453Z,43.4
2018-01-17T10:50:02.079Z,43.4
2018-01-17T10:51:03.402Z,43.6
2018-01-17T10:52:05.298Z,43.4
2018-01-17T10:53:06.900Z,43.3
2018-01-17T10:54:08.258Z,43.3
2018-01-17T10:55:09.991Z,43
2018-01-17T10:56:11.593Z,43.4
2018-01-17T10:57:12.916Z,43.4
2018-01-17T10:58:13.961Z,43.2
2018-01-17T10:59:15.652Z,43.5
2018-01-17T11:00:17.600Z,43.5
2018-01-17T11:01:19.226Z,43.4
2018-01-17T11:02:20.294Z,43.1
2018-01-17T11:03:21.919Z,43.3
2018-01-17T11:04:23.523Z,43.2
2018-01-17T11:05:24.869Z,43.3
2018-01-17T11:06:26.193Z,43
2018-01-17T11:07:28.143Z,43.3
2018-01-17T11:08:29.776Z,43
2018-01-17T11:09:31.384Z,43.2
2018-01-17T11:10:33.014Z,43.1
2018-01-17T11:11:34.636Z,42.9
2018-01-17T11:12:35.982Z,43.1
2018-01-17T11:13:37.588Z,43.2
2018-01-17T11:14:38.632Z,43.3
2018-01-17T11:15:39.961Z,42.9
2018-01-17T11:16:41.293Z,43.1
2018-01-17T11:17:42.921Z,42.8
2018-01-17T11:18:44.253Z,43
2018-01-17T11:19:45.872Z,42.9
2018-01-17T11:20:47.778Z,43.3
2018-01-17T11:21:49.397Z,43.1
2018-01-17T11:22:51.297Z,43.1
2018-01-17T11:23:53.201Z,43
2018-01-17T11:24:54.645Z,42.7
2018-01-17T11:25:55.967Z,43.2
2018-01-17T11:26:57.705Z,43
2018-01-17T11:27:59.636Z,42.9
2018-01-17T11:29:01.292Z,43.2
2018-01-17T11:30:02.570Z,43.3
2018-01-17T11:31:04.478Z,42.9
2018-01-17T11:32:05.821Z,42.9
2018-01-17T11:33:07.724Z,42.9
2018-01-17T11:34:09.322Z,42.9
2018-01-17T11:35:10.923Z,42.5
2018-01-17T11:36:12.546Z,42.9
2018-01-17T11:37:13.874Z,42.9
2018-01-17T11:38:15.473Z,42.6
2018-01-17T11:39:17.100Z,42.8
2018-01-17T11:40:18.445Z,43
2018-01-17T11:41:20.070Z,42.8
2018-01-17T11:42:21.399Z,42.9
2018-01-17T11:43:23.205Z,42.6
2018-01-17T11:44:24.551Z,42.8
2018-01-17T11:45:26.176Z,43
2018-01-17T11:46:27.800Z,43.2
2018-01-17T11:47:29.421Z,43.3
2018-01-17T11:48:31.075Z,43.1
2018-01-17T11:49:32.972Z,43.1
2018-01-17T11:50:34.595Z,43.3
2018-01-17T11:51:36.500Z,43.3
2018-01-17T11:52:38.397Z,43.4
2018-01-17T11:53:39.717Z,43.3
2018-01-17T11:54:41.613Z,43.4
2018-01-17T11:55:42.956Z,43.5
2018-01-17T11:56:44.303Z,43.3
2018-01-17T11:57:46.204Z,43.4
2018-01-17T11:58:48.102Z,43.1
2018-01-17T11:59:49.360Z,43.1
2018-01-17T12:00:51.254Z,43.2
2018-01-17T12:01:52.318Z,43.2
2018-01-17T12:02:53.386Z,43.1
2018-01-17T12:03:55.061Z,43
2018-01-17T12:04:56.686Z,43.1
2018-01-17T12:05:58.307Z,43.1
2018-01-17T12:06:59.648Z,43
2018-01-17T12:08:00.979Z,43.3
2018-01-17T12:09:02.601Z,43.3
2018-01-17T12:10:04.500Z,43.3
2018-01-17T12:11:06.104Z,43.3
2018-01-17T12:12:07.720Z,43.2
2018-01-17T12:13:09.619Z,43.4
2018-01-17T12:14:11.219Z,43.4
2018-01-17T12:15:12.842Z,43.3
2018-01-17T12:16:14.186Z,43.3
2018-01-17T12:17:15.805Z,43.3
2018-01-17T12:18:17.424Z,43.4
2018-01-17T12:19:19.319Z,43.2
2018-01-17T12:20:20.916Z,43.5
2018-01-17T12:21:22.237Z,43.4
2018-01-17T12:22:24.136Z,43.5
2018-01-17T12:23:25.458Z,43.5
2018-01-17T12:24:26.554Z,43.4
2018-01-17T12:25:27.899Z,43.4
2018-01-17T12:26:29.240Z,43.5
2018-01-17T12:27:30.857Z,43.4
2018-01-17T12:28:32.173Z,43.1
2018-01-17T12:29:33.799Z,43.2
2018-01-17T12:30:35.423Z,43.2
2018-01-17T12:31:37.323Z,43.2
2018-01-17T12:32:38.645Z,43.5
2018-01-17T12:33:40.543Z,43.5
2018-01-17T12:34:42.158Z,43.5
2018-01-17T12:35:43.781Z,43.4
2018-01-17T12:36:45.406Z,43.1
2018-01-17T12:37:47.304Z,43.3
2018-01-17T12:38:48.898Z,43.2
2018-01-17T12:39:50.512Z,43.1
2018-01-17T12:40:52.134Z,43.1
2018-01-17T12:41:53.756Z,43.5
2018-01-17T12:42:55.353Z,43.5
2018-01-17T12:43:56.420Z,43.1
2018-01-17T12:44:57.763Z,43.1
2018-01-17T12:45:59.661Z,43.3
2018-01-17T12:47:01.283Z,43.1
2018-01-17T12:48:02.329Z,43
2018-01-17T12:49:03.649Z,43.3
2018-01-17T12:50:05.545Z,43.2
2018-01-17T12:51:06.888Z,43.3
2018-01-17T12:52:08.230Z,43.1
2018-01-17T12:53:10.131Z,43.2
2018-01-17T12:54:11.736Z,43.3
2018-01-17T12:55:12.769Z,43.3
2018-01-17T12:56:14.391Z,43.3
2018-01-17T12:57:15.732Z,43.2
2018-01-17T12:58:17.073Z,43.2
2018-01-17T12:59:18.972Z,42.7
2018-01-17T13:00:20.314Z,43.1
2018-01-17T13:01:21.956Z,42.9
2018-01-17T13:02:23.852Z,42.6
2018-01-17T13:03:24.893Z,43.1
2018-01-17T13:04:26.799Z,43.1
2018-01-17T13:05:27.864Z,43.1
2018-01-17T13:06:29.483Z,43.1
2018-01-17T13:07:30.800Z,43.1
2018-01-17T13:08:32.126Z,43.1
2018-01-17T13:09:33.749Z,42.7
2018-01-17T13:10:35.644Z,43.2
2018-01-17T13:11:37.412Z,43.1
2018-01-17T13:12:39.359Z,43.1
2018-01-17T13:13:40.496Z,42.7
2018-01-17T13:14:41.838Z,42.9
2018-01-17T13:15:43.158Z,43.1
2018-01-17T13:16:44.553Z,43.1
2018-01-17T13:17:45.884Z,43.1
2018-01-17T13:18:46.951Z,43.1
2018-01-17T13:19:48.570Z,43.1
2018-01-17T13:20:49.637Z,42.8
2018-01-17T13:21:51.256Z,43.1
2018-01-17T13:22:52.873Z,42.9
2018-01-17T13:23:54.773Z,42.9
2018-01-17T13:24:56.104Z,43.1
2018-01-17T13:25:57.868Z,42.8
2018-01-17T13:26:59.315Z,42.9
2018-01-17T13:28:00.745Z,42.9
2018-01-17T13:29:01.795Z,42.9
2018-01-17T13:30:03.489Z,42.7
2018-01-17T13:31:05.446Z,42.6
2018-01-17T13:32:07.069Z,42.7
2018-01-17T13:33:08.687Z,42.7
2018-01-17T13:34:10.007Z,42.7
2018-01-17T13:35:11.333Z,42.9
2018-01-17T13:36:13.251Z,42.6
2018-01-17T13:37:14.582Z,43
2018-01-17T13:38:16.249Z,42.7
2018-01-17T13:39:18.131Z,42.7
2018-01-17T13:40:19.175Z,42.8
2018-01-17T13:41:20.515Z,43
2018-01-17T13:42:21.831Z,42.9
2018-01-17T13:43:23.450Z,42.6
2018-01-17T13:44:24.772Z,42.7
2018-01-17T13:45:26.391Z,42.6